sensor_id;sensor_type;location;lat;lon;timestamp;P1;durP1;ratioP1;P2;durP2;ratioP2
41446;SDS011;27185;52.040;4.490;2022-12-18T00:00:30;76.25;;;29.23;;
41446;SDS011;27185;52.040;4.490;2022-12-18T00:03:16;72.32;;;29.85;;
41446;SDS011;27185;52.040;4.490;2022-12-18T00:06:01;69.57;;;28.02;;
41446;SDS011;27185;52.040;4.490;2022-12-18T00:08:47;73.43;;;28.65;;
41446;SDS011;27185;52.040;4.490;2022-12-18T00:11:33;87.10;;;33.17;;
41446;SDS011;27185;52.040;4.490;2022-12-18T00:14:19;77.80;;;31.45;;
41446;SDS011;27185;52.040;4.490;2022-12-18T00:17:05;88.68;;;32.08;;
41446;SDS011;27185;52.040;4.490;2022-12-18T00:19:50;87.18;;;32.63;;
41446;SDS011;27185;52.040;4.490;2022-12-18T00:22:36;80.82;;;32.20;;
41446;SDS011;27185;52.040;4.490;2022-12-18T00:25:24;82.18;;;31.30;;
41446;SDS011;27185;52.040;4.490;2022-12-18T00:28:10;76.35;;;30.90;;
41446;SDS011;27185;52.040;4.490;2022-12-18T00:31:00;79.93;;;31.25;;
41446;SDS011;27185;52.040;4.490;2022-12-18T00:33:50;71.18;;;30.10;;
41446;SDS011;27185;52.040;4.490;2022-12-18T00:36:36;69.78;;;30.33;;
41446;SDS011;27185;52.040;4.490;2022-12-18T00:39:22;73.10;;;30.02;;
41446;SDS011;27185;52.040;4.490;2022-12-18T00:42:07;73.80;;;29.95;;
41446;SDS011;27185;52.040;4.490;2022-12-18T00:45:13;82.70;;;31.73;;
41446;SDS011;27185;52.040;4.490;2022-12-18T00:47:59;75.13;;;30.35;;
41446;SDS011;27185;52.040;4.490;2022-12-18T00:50:45;81.35;;;30.52;;
41446;SDS011;27185;52.040;4.490;2022-12-18T00:53:31;86.10;;;33.28;;
41446;SDS011;27185;52.040;4.490;2022-12-18T00:56:17;77.70;;;30.38;;
41446;SDS011;27185;52.040;4.490;2022-12-18T00:59:03;80.55;;;32.00;;
41446;SDS011;27185;52.040;4.490;2022-12-18T01:01:49;84.63;;;32.22;;
41446;SDS011;27185;52.040;4.490;2022-12-18T01:04:35;82.85;;;32.40;;
41446;SDS011;27185;52.040;4.490;2022-12-18T01:07:20;89.00;;;32.13;;
41446;SDS011;27185;52.040;4.490;2022-12-18T01:10:06;83.78;;;31.13;;
41446;SDS011;27185;52.040;4.490;2022-12-18T01:12:52;80.05;;;31.10;;
41446;SDS011;27185;52.040;4.490;2022-12-18T01:15:38;85.10;;;31.77;;
41446;SDS011;27185;52.040;4.490;2022-12-18T01:18:24;87.75;;;31.95;;
41446;SDS011;27185;52.040;4.490;2022-12-18T01:21:13;82.50;;;32.00;;
41446;SDS011;27185;52.040;4.490;2022-12-18T01:24:00;79.18;;;30.58;;
41446;SDS011;27185;52.040;4.490;2022-12-18T01:26:46;82.28;;;32.35;;
41446;SDS011;27185;52.040;4.490;2022-12-18T01:29:31;80.80;;;29.42;;
41446;SDS011;27185;52.040;4.490;2022-12-18T01:32:17;81.68;;;29.65;;
41446;SDS011;27185;52.040;4.490;2022-12-18T01:35:02;77.47;;;30.35;;
41446;SDS011;27185;52.040;4.490;2022-12-18T01:37:48;74.15;;;29.67;;
41446;SDS011;27185;52.040;4.490;2022-12-18T01:40:34;87.65;;;31.92;;
41446;SDS011;27185;52.040;4.490;2022-12-18T01:43:20;84.32;;;31.08;;
41446;SDS011;27185;52.040;4.490;2022-12-18T01:46:05;79.63;;;30.58;;
41446;SDS011;27185;52.040;4.490;2022-12-18T01:48:58;82.00;;;30.77;;
41446;SDS011;27185;52.040;4.490;2022-12-18T01:51:46;89.38;;;32.38;;
41446;SDS011;27185;52.040;4.490;2022-12-18T01:54:31;81.15;;;32.95;;
41446;SDS011;27185;52.040;4.490;2022-12-18T01:57:17;78.20;;;30.48;;
41446;SDS011;27185;52.040;4.490;2022-12-18T02:00:24;80.10;;;30.85;;
41446;SDS011;27185;52.040;4.490;2022-12-18T02:03:11;79.15;;;30.27;;
41446;SDS011;27185;52.040;4.490;2022-12-18T02:09:08;76.88;;;29.40;;
41446;SDS011;27185;52.040;4.490;2022-12-18T02:12:03;80.25;;;30.95;;
41446;SDS011;27185;52.040;4.490;2022-12-18T02:14:59;79.10;;;30.65;;
41446;SDS011;27185;52.040;4.490;2022-12-18T02:26:59;82.70;;;31.52;;
41446;SDS011;27185;52.040;4.490;2022-12-18T02:29:50;82.40;;;29.98;;
41446;SDS011;27185;52.040;4.490;2022-12-18T02:32:39;78.93;;;29.58;;
41446;SDS011;27185;52.040;4.490;2022-12-18T02:35:27;66.72;;;27.10;;
41446;SDS011;27185;52.040;4.490;2022-12-18T02:38:15;75.25;;;28.75;;
41446;SDS011;27185;52.040;4.490;2022-12-18T02:41:02;71.10;;;27.85;;
41446;SDS011;27185;52.040;4.490;2022-12-18T02:43:50;61.13;;;26.20;;
41446;SDS011;27185;52.040;4.490;2022-12-18T02:46:45;61.28;;;25.58;;
41446;SDS011;27185;52.040;4.490;2022-12-18T02:49:41;69.60;;;25.63;;
41446;SDS011;27185;52.040;4.490;2022-12-18T02:59:04;65.68;;;26.45;;
41446;SDS011;27185;52.040;4.490;2022-12-18T03:02:02;79.28;;;26.05;;
41446;SDS011;27185;52.040;4.490;2022-12-18T03:04:56;61.33;;;24.85;;
41446;SDS011;27185;52.040;4.490;2022-12-18T03:07:58;65.82;;;25.42;;
41446;SDS011;27185;52.040;4.490;2022-12-18T03:11:02;59.38;;;23.17;;
41446;SDS011;27185;52.040;4.490;2022-12-18T03:13:54;57.58;;;24.83;;
41446;SDS011;27185;52.040;4.490;2022-12-18T03:16:43;64.03;;;26.10;;
41446;SDS011;27185;52.040;4.490;2022-12-18T03:19:31;60.97;;;26.02;;
41446;SDS011;27185;52.040;4.490;2022-12-18T03:22:17;62.10;;;25.92;;
41446;SDS011;27185;52.040;4.490;2022-12-18T03:25:04;59.30;;;24.65;;
41446;SDS011;27185;52.040;4.490;2022-12-18T03:27:54;47.50;;;22.92;;
41446;SDS011;27185;52.040;4.490;2022-12-18T03:30:43;61.75;;;24.83;;
41446;SDS011;27185;52.040;4.490;2022-12-18T03:33:40;62.03;;;24.85;;
41446;SDS011;27185;52.040;4.490;2022-12-18T03:36:53;63.95;;;25.08;;
41446;SDS011;27185;52.040;4.490;2022-12-18T03:39:39;59.05;;;24.13;;
41446;SDS011;27185;52.040;4.490;2022-12-18T03:42:29;71.80;;;25.38;;
41446;SDS011;27185;52.040;4.490;2022-12-18T03:45:36;73.65;;;29.33;;
41446;SDS011;27185;52.040;4.490;2022-12-18T03:48:28;74.53;;;29.08;;
41446;SDS011;27185;52.040;4.490;2022-12-18T03:51:18;63.25;;;24.95;;
41446;SDS011;27185;52.040;4.490;2022-12-18T03:54:11;71.93;;;28.30;;
41446;SDS011;27185;52.040;4.490;2022-12-18T03:57:01;64.07;;;26.15;;
41446;SDS011;27185;52.040;4.490;2022-12-18T04:00:13;68.38;;;27.15;;
41446;SDS011;27185;52.040;4.490;2022-12-18T04:03:01;75.35;;;27.80;;
41446;SDS011;27185;52.040;4.490;2022-12-18T04:05:50;57.80;;;22.70;;
41446;SDS011;27185;52.040;4.490;2022-12-18T04:08:37;60.60;;;25.95;;
41446;SDS011;27185;52.040;4.490;2022-12-18T04:11:25;55.42;;;24.65;;
41446;SDS011;27185;52.040;4.490;2022-12-18T04:14:10;62.67;;;24.70;;
41446;SDS011;27185;52.040;4.490;2022-12-18T04:16:56;65.63;;;25.23;;
41446;SDS011;27185;52.040;4.490;2022-12-18T04:19:42;57.83;;;23.67;;
41446;SDS011;27185;52.040;4.490;2022-12-18T04:22:27;52.08;;;23.63;;
41446;SDS011;27185;52.040;4.490;2022-12-18T04:25:13;68.43;;;25.45;;
41446;SDS011;27185;52.040;4.490;2022-12-18T04:27:59;61.05;;;24.80;;
41446;SDS011;27185;52.040;4.490;2022-12-18T04:30:44;61.28;;;23.20;;
41446;SDS011;27185;52.040;4.490;2022-12-18T04:33:30;64.45;;;24.27;;
41446;SDS011;27185;52.040;4.490;2022-12-18T04:36:15;60.38;;;25.30;;
41446;SDS011;27185;52.040;4.490;2022-12-18T04:39:01;63.92;;;24.95;;
41446;SDS011;27185;52.040;4.490;2022-12-18T04:41:46;59.30;;;22.70;;
41446;SDS011;27185;52.040;4.490;2022-12-18T04:44:32;57.80;;;23.35;;
41446;SDS011;27185;52.040;4.490;2022-12-18T04:47:18;56.22;;;21.60;;
41446;SDS011;27185;52.040;4.490;2022-12-18T04:50:03;54.42;;;21.35;;
41446;SDS011;27185;52.040;4.490;2022-12-18T04:52:49;51.13;;;23.13;;
41446;SDS011;27185;52.040;4.490;2022-12-18T04:55:35;56.58;;;23.48;;
41446;SDS011;27185;52.040;4.490;2022-12-18T04:58:21;56.40;;;25.60;;
41446;SDS011;27185;52.040;4.490;2022-12-18T05:01:07;66.70;;;27.05;;
41446;SDS011;27185;52.040;4.490;2022-12-18T05:03:52;69.25;;;29.30;;
41446;SDS011;27185;52.040;4.490;2022-12-18T05:06:38;77.53;;;31.50;;
41446;SDS011;27185;52.040;4.490;2022-12-18T05:09:24;83.53;;;31.85;;
41446;SDS011;27185;52.040;4.490;2022-12-18T05:12:09;77.65;;;29.80;;
41446;SDS011;27185;52.040;4.490;2022-12-18T05:14:55;60.60;;;26.15;;
41446;SDS011;27185;52.040;4.490;2022-12-18T05:17:40;67.50;;;26.30;;
41446;SDS011;27185;52.040;4.490;2022-12-18T05:20:26;67.10;;;26.70;;
41446;SDS011;27185;52.040;4.490;2022-12-18T05:23:12;70.40;;;28.25;;
41446;SDS011;27185;52.040;4.490;2022-12-18T05:25:58;68.65;;;27.42;;
41446;SDS011;27185;52.040;4.490;2022-12-18T05:28:45;74.43;;;26.92;;
41446;SDS011;27185;52.040;4.490;2022-12-18T05:31:31;62.75;;;25.75;;
41446;SDS011;27185;52.040;4.490;2022-12-18T05:34:17;70.30;;;27.10;;
41446;SDS011;27185;52.040;4.490;2022-12-18T05:37:02;64.85;;;27.10;;
41446;SDS011;27185;52.040;4.490;2022-12-18T05:39:48;60.20;;;24.27;;
41446;SDS011;27185;52.040;4.490;2022-12-18T05:42:34;61.63;;;26.05;;
41446;SDS011;27185;52.040;4.490;2022-12-18T05:45:19;59.50;;;24.20;;
41446;SDS011;27185;52.040;4.490;2022-12-18T05:48:05;56.78;;;23.00;;
41446;SDS011;27185;52.040;4.490;2022-12-18T05:50:51;59.92;;;25.90;;
41446;SDS011;27185;52.040;4.490;2022-12-18T05:53:37;60.08;;;23.10;;
41446;SDS011;27185;52.040;4.490;2022-12-18T05:56:23;59.65;;;23.83;;
41446;SDS011;27185;52.040;4.490;2022-12-18T05:59:08;53.47;;;22.73;;
41446;SDS011;27185;52.040;4.490;2022-12-18T06:01:54;62.35;;;26.20;;
41446;SDS011;27185;52.040;4.490;2022-12-18T06:04:40;64.20;;;27.88;;
41446;SDS011;27185;52.040;4.490;2022-12-18T06:07:25;70.18;;;26.77;;
41446;SDS011;27185;52.040;4.490;2022-12-18T06:10:11;72.00;;;28.48;;
41446;SDS011;27185;52.040;4.490;2022-12-18T06:12:56;67.93;;;29.15;;
41446;SDS011;27185;52.040;4.490;2022-12-18T06:15:42;74.88;;;27.50;;
41446;SDS011;27185;52.040;4.490;2022-12-18T06:18:28;64.90;;;27.73;;
41446;SDS011;27185;52.040;4.490;2022-12-18T06:21:13;74.55;;;28.90;;
41446;SDS011;27185;52.040;4.490;2022-12-18T06:23:59;63.95;;;29.38;;
41446;SDS011;27185;52.040;4.490;2022-12-18T06:26:45;61.15;;;25.83;;
41446;SDS011;27185;52.040;4.490;2022-12-18T06:29:30;79.88;;;28.50;;
41446;SDS011;27185;52.040;4.490;2022-12-18T06:32:16;60.67;;;26.30;;
41446;SDS011;27185;52.040;4.490;2022-12-18T06:35:01;67.15;;;26.65;;
41446;SDS011;27185;52.040;4.490;2022-12-18T06:37:47;64.32;;;28.15;;
41446;SDS011;27185;52.040;4.490;2022-12-18T06:40:33;69.22;;;28.75;;
41446;SDS011;27185;52.040;4.490;2022-12-18T06:43:19;66.97;;;28.85;;
41446;SDS011;27185;52.040;4.490;2022-12-18T06:46:04;69.35;;;28.33;;
41446;SDS011;27185;52.040;4.490;2022-12-18T06:48:50;72.07;;;27.15;;
41446;SDS011;27185;52.040;4.490;2022-12-18T06:51:36;63.75;;;28.17;;
41446;SDS011;27185;52.040;4.490;2022-12-18T06:54:22;64.70;;;26.05;;
41446;SDS011;27185;52.040;4.490;2022-12-18T06:57:07;56.42;;;24.98;;
41446;SDS011;27185;52.040;4.490;2022-12-18T06:59:53;76.53;;;29.35;;
41446;SDS011;27185;52.040;4.490;2022-12-18T07:02:39;70.68;;;29.50;;
41446;SDS011;27185;52.040;4.490;2022-12-18T07:05:25;67.28;;;27.48;;
41446;SDS011;27185;52.040;4.490;2022-12-18T07:08:10;60.28;;;26.20;;
41446;SDS011;27185;52.040;4.490;2022-12-18T07:10:56;72.93;;;28.58;;
41446;SDS011;27185;52.040;4.490;2022-12-18T07:13:42;65.88;;;27.42;;
41446;SDS011;27185;52.040;4.490;2022-12-18T07:16:28;64.05;;;26.77;;
41446;SDS011;27185;52.040;4.490;2022-12-18T07:19:13;61.00;;;26.70;;
41446;SDS011;27185;52.040;4.490;2022-12-18T07:21:59;62.83;;;25.42;;
41446;SDS011;27185;52.040;4.490;2022-12-18T07:24:45;59.35;;;25.67;;
41446;SDS011;27185;52.040;4.490;2022-12-18T07:27:30;63.40;;;27.27;;
41446;SDS011;27185;52.040;4.490;2022-12-18T07:30:16;59.05;;;25.05;;
41446;SDS011;27185;52.040;4.490;2022-12-18T07:33:02;66.00;;;26.52;;
41446;SDS011;27185;52.040;4.490;2022-12-18T07:35:47;63.75;;;27.83;;
41446;SDS011;27185;52.040;4.490;2022-12-18T07:38:33;66.55;;;27.58;;
41446;SDS011;27185;52.040;4.490;2022-12-18T07:41:20;58.72;;;26.33;;
41446;SDS011;27185;52.040;4.490;2022-12-18T07:44:05;51.58;;;22.98;;
41446;SDS011;27185;52.040;4.490;2022-12-18T07:46:51;52.20;;;22.00;;
41446;SDS011;27185;52.040;4.490;2022-12-18T07:49:36;47.97;;;20.48;;
41446;SDS011;27185;52.040;4.490;2022-12-18T07:52:22;47.80;;;20.58;;
41446;SDS011;27185;52.040;4.490;2022-12-18T07:55:08;50.78;;;21.05;;
41446;SDS011;27185;52.040;4.490;2022-12-18T07:57:54;39.58;;;20.10;;
41446;SDS011;27185;52.040;4.490;2022-12-18T08:00:39;43.58;;;19.70;;
41446;SDS011;27185;52.040;4.490;2022-12-18T08:03:25;38.40;;;19.33;;
41446;SDS011;27185;52.040;4.490;2022-12-18T08:06:10;42.17;;;19.30;;
41446;SDS011;27185;52.040;4.490;2022-12-18T08:08:56;42.05;;;19.45;;
41446;SDS011;27185;52.040;4.490;2022-12-18T08:11:42;44.25;;;20.42;;
41446;SDS011;27185;52.040;4.490;2022-12-18T08:14:27;45.28;;;20.42;;
41446;SDS011;27185;52.040;4.490;2022-12-18T08:17:13;53.65;;;23.88;;
41446;SDS011;27185;52.040;4.490;2022-12-18T08:19:59;64.55;;;27.67;;
41446;SDS011;27185;52.040;4.490;2022-12-18T08:22:44;59.70;;;23.85;;
41446;SDS011;27185;52.040;4.490;2022-12-18T08:25:30;53.10;;;24.25;;
41446;SDS011;27185;52.040;4.490;2022-12-18T08:28:15;38.75;;;18.80;;
41446;SDS011;27185;52.040;4.490;2022-12-18T08:31:01;40.20;;;19.23;;
41446;SDS011;27185;52.040;4.490;2022-12-18T08:33:50;47.28;;;19.10;;
41446;SDS011;27185;52.040;4.490;2022-12-18T08:36:37;39.28;;;17.77;;
41446;SDS011;27185;52.040;4.490;2022-12-18T08:39:22;43.47;;;18.15;;
41446;SDS011;27185;52.040;4.490;2022-12-18T08:42:08;34.83;;;16.25;;
41446;SDS011;27185;52.040;4.490;2022-12-18T08:45:12;36.05;;;16.70;;
41446;SDS011;27185;52.040;4.490;2022-12-18T08:47:58;38.47;;;18.17;;
41446;SDS011;27185;52.040;4.490;2022-12-18T08:50:43;36.72;;;17.02;;
41446;SDS011;27185;52.040;4.490;2022-12-18T08:53:29;33.20;;;16.88;;
41446;SDS011;27185;52.040;4.490;2022-12-18T08:56:14;37.15;;;17.20;;
41446;SDS011;27185;52.040;4.490;2022-12-18T08:59:00;34.95;;;17.95;;
41446;SDS011;27185;52.040;4.490;2022-12-18T09:01:46;32.85;;;17.13;;
41446;SDS011;27185;52.040;4.490;2022-12-18T09:04:32;40.10;;;19.05;;
41446;SDS011;27185;52.040;4.490;2022-12-18T09:07:18;36.85;;;19.65;;
41446;SDS011;27185;52.040;4.490;2022-12-18T09:10:03;31.20;;;16.77;;
41446;SDS011;27185;52.040;4.490;2022-12-18T09:12:49;33.17;;;15.93;;
41446;SDS011;27185;52.040;4.490;2022-12-18T09:15:39;33.50;;;17.23;;
41446;SDS011;27185;52.040;4.490;2022-12-18T09:18:30;34.35;;;17.23;;
41446;SDS011;27185;52.040;4.490;2022-12-18T09:21:16;33.50;;;16.83;;
41446;SDS011;27185;52.040;4.490;2022-12-18T09:24:05;34.70;;;17.02;;
41446;SDS011;27185;52.040;4.490;2022-12-18T09:26:54;33.80;;;15.75;;
41446;SDS011;27185;52.040;4.490;2022-12-18T09:29:40;39.30;;;17.58;;
41446;SDS011;27185;52.040;4.490;2022-12-18T09:32:26;30.80;;;17.15;;
41446;SDS011;27185;52.040;4.490;2022-12-18T09:35:11;34.88;;;17.25;;
41446;SDS011;27185;52.040;4.490;2022-12-18T09:37:57;34.80;;;17.25;;
41446;SDS011;27185;52.040;4.490;2022-12-18T09:40:43;37.15;;;18.63;;
41446;SDS011;27185;52.040;4.490;2022-12-18T09:43:44;38.85;;;19.20;;
41446;SDS011;27185;52.040;4.490;2022-12-18T09:46:34;37.83;;;19.85;;
41446;SDS011;27185;52.040;4.490;2022-12-18T09:49:26;33.10;;;17.58;;
41446;SDS011;27185;52.040;4.490;2022-12-18T09:52:23;34.30;;;17.10;;
41446;SDS011;27185;52.040;4.490;2022-12-18T09:58:14;29.77;;;15.75;;
41446;SDS011;27185;52.040;4.490;2022-12-18T10:01:21;29.60;;;16.83;;
41446;SDS011;27185;52.040;4.490;2022-12-18T10:04:08;32.28;;;17.10;;
41446;SDS011;27185;52.040;4.490;2022-12-18T10:07:02;37.72;;;17.98;;
41446;SDS011;27185;52.040;4.490;2022-12-18T10:10:01;35.25;;;18.00;;
41446;SDS011;27185;52.040;4.490;2022-12-18T10:13:22;32.10;;;16.35;;
41446;SDS011;27185;52.040;4.490;2022-12-18T10:28:44;38.08;;;18.75;;
41446;SDS011;27185;52.040;4.490;2022-12-18T10:31:30;38.97;;;19.60;;
41446;SDS011;27185;52.040;4.490;2022-12-18T10:34:16;32.38;;;19.00;;
41446;SDS011;27185;52.040;4.490;2022-12-18T10:37:03;37.17;;;19.65;;
41446;SDS011;27185;52.040;4.490;2022-12-18T10:40:11;35.13;;;19.05;;
41446;SDS011;27185;52.040;4.490;2022-12-18T10:43:05;33.50;;;18.40;;
41446;SDS011;27185;52.040;4.490;2022-12-18T10:51:34;34.72;;;15.95;;
41446;SDS011;27185;52.040;4.490;2022-12-18T10:57:29;29.77;;;15.52;;
41446;SDS011;27185;52.040;4.490;2022-12-18T11:03:29;30.70;;;15.70;;
41446;SDS011;27185;52.040;4.490;2022-12-18T11:06:25;32.42;;;16.80;;
41446;SDS011;27185;52.040;4.490;2022-12-18T11:09:22;25.63;;;14.55;;
41446;SDS011;27185;52.040;4.490;2022-12-18T11:15:02;33.80;;;18.05;;
41446;SDS011;27185;52.040;4.490;2022-12-18T11:17:49;26.08;;;16.05;;
41446;SDS011;27185;52.040;4.490;2022-12-18T11:20:36;30.55;;;16.75;;
41446;SDS011;27185;52.040;4.490;2022-12-18T11:23:22;27.52;;;15.50;;
41446;SDS011;27185;52.040;4.490;2022-12-18T11:26:08;28.02;;;16.20;;
41446;SDS011;27185;52.040;4.490;2022-12-18T11:29:08;27.17;;;15.82;;
41446;SDS011;27185;52.040;4.490;2022-12-18T11:38:02;34.95;;;17.90;;
41446;SDS011;27185;52.040;4.490;2022-12-18T11:41:04;33.95;;;16.90;;
41446;SDS011;27185;52.040;4.490;2022-12-18T11:44:38;24.30;;;14.88;;
41446;SDS011;27185;52.040;4.490;2022-12-18T11:47:52;30.35;;;16.40;;
41446;SDS011;27185;52.040;4.490;2022-12-18T11:50:52;30.05;;;17.35;;
41446;SDS011;27185;52.040;4.490;2022-12-18T11:53:42;27.80;;;15.63;;
41446;SDS011;27185;52.040;4.490;2022-12-18T11:56:32;28.73;;;16.30;;
41446;SDS011;27185;52.040;4.490;2022-12-18T12:14:50;31.42;;;16.02;;
41446;SDS011;27185;52.040;4.490;2022-12-18T12:26:51;26.75;;;15.40;;
41446;SDS011;27185;52.040;4.490;2022-12-18T12:29:59;31.85;;;15.88;;
41446;SDS011;27185;52.040;4.490;2022-12-18T12:33:02;31.60;;;16.95;;
41446;SDS011;27185;52.040;4.490;2022-12-18T12:39:17;29.77;;;16.50;;
41446;SDS011;27185;52.040;4.490;2022-12-18T12:42:06;30.65;;;16.80;;
41446;SDS011;27185;52.040;4.490;2022-12-18T12:45:36;26.58;;;15.90;;
41446;SDS011;27185;52.040;4.490;2022-12-18T12:51:26;27.00;;;16.25;;
41446;SDS011;27185;52.040;4.490;2022-12-18T12:54:21;28.55;;;16.40;;
41446;SDS011;27185;52.040;4.490;2022-12-18T12:57:11;29.17;;;16.15;;
41446;SDS011;27185;52.040;4.490;2022-12-18T13:00:07;31.70;;;17.20;;
41446;SDS011;27185;52.040;4.490;2022-12-18T13:03:06;28.77;;;16.00;;
41446;SDS011;27185;52.040;4.490;2022-12-18T13:06:02;28.23;;;14.98;;
41446;SDS011;27185;52.040;4.490;2022-12-18T13:08:58;26.92;;;15.95;;
41446;SDS011;27185;52.040;4.490;2022-12-18T13:11:46;31.55;;;17.45;;
41446;SDS011;27185;52.040;4.490;2022-12-18T13:14:51;27.40;;;15.88;;
41446;SDS011;27185;52.040;4.490;2022-12-18T13:17:36;32.92;;;16.80;;
41446;SDS011;27185;52.040;4.490;2022-12-18T13:20:22;29.73;;;15.52;;
41446;SDS011;27185;52.040;4.490;2022-12-18T13:29:02;28.40;;;16.00;;
41446;SDS011;27185;52.040;4.490;2022-12-18T13:34:34;28.77;;;16.08;;
41446;SDS011;27185;52.040;4.490;2022-12-18T13:37:39;30.63;;;16.88;;
41446;SDS011;27185;52.040;4.490;2022-12-18T13:43:26;31.27;;;16.63;;
41446;SDS011;27185;52.040;4.490;2022-12-18T13:46:23;39.17;;;19.40;;
41446;SDS011;27185;52.040;4.490;2022-12-18T13:49:40;27.98;;;16.13;;
41446;SDS011;27185;52.040;4.490;2022-12-18T13:52:28;27.05;;;15.77;;
41446;SDS011;27185;52.040;4.490;2022-12-18T13:55:21;28.70;;;16.30;;
41446;SDS011;27185;52.040;4.490;2022-12-18T13:58:11;26.60;;;16.13;;
41446;SDS011;27185;52.040;4.490;2022-12-18T14:00:57;26.48;;;16.05;;
41446;SDS011;27185;52.040;4.490;2022-12-18T14:03:44;30.13;;;15.65;;
41446;SDS011;27185;52.040;4.490;2022-12-18T14:06:29;31.00;;;16.85;;
41446;SDS011;27185;52.040;4.490;2022-12-18T14:09:17;32.13;;;18.15;;
41446;SDS011;27185;52.040;4.490;2022-12-18T14:12:06;30.55;;;18.15;;
41446;SDS011;27185;52.040;4.490;2022-12-18T14:21:00;33.28;;;18.42;;
41446;SDS011;27185;52.040;4.490;2022-12-18T14:23:47;32.22;;;16.63;;
41446;SDS011;27185;52.040;4.490;2022-12-18T14:26:33;33.08;;;17.08;;
41446;SDS011;27185;52.040;4.490;2022-12-18T14:29:20;30.35;;;17.25;;
41446;SDS011;27185;52.040;4.490;2022-12-18T14:32:15;28.00;;;16.23;;
41446;SDS011;27185;52.040;4.490;2022-12-18T14:35:12;32.92;;;17.35;;
41446;SDS011;27185;52.040;4.490;2022-12-18T14:38:16;34.42;;;18.30;;
41446;SDS011;27185;52.040;4.490;2022-12-18T14:41:14;28.65;;;17.05;;
41446;SDS011;27185;52.040;4.490;2022-12-18T14:44:05;29.15;;;17.40;;
41446;SDS011;27185;52.040;4.490;2022-12-18T14:46:52;35.92;;;18.60;;
41446;SDS011;27185;52.040;4.490;2022-12-18T14:49:38;31.55;;;17.10;;
41446;SDS011;27185;52.040;4.490;2022-12-18T14:52:27;32.50;;;18.45;;
41446;SDS011;27185;52.040;4.490;2022-12-18T14:55:16;32.92;;;18.40;;
41446;SDS011;27185;52.040;4.490;2022-12-18T14:58:03;33.30;;;18.17;;
41446;SDS011;27185;52.040;4.490;2022-12-18T15:00:49;30.27;;;17.77;;
41446;SDS011;27185;52.040;4.490;2022-12-18T15:03:35;31.52;;;18.42;;
41446;SDS011;27185;52.040;4.490;2022-12-18T15:06:31;33.03;;;18.95;;
41446;SDS011;27185;52.040;4.490;2022-12-18T15:09:22;32.55;;;17.17;;
41446;SDS011;27185;52.040;4.490;2022-12-18T15:12:24;32.38;;;17.70;;
41446;SDS011;27185;52.040;4.490;2022-12-18T15:18:20;32.15;;;19.02;;
41446;SDS011;27185;52.040;4.490;2022-12-18T15:21:14;32.80;;;19.75;;
41446;SDS011;27185;52.040;4.490;2022-12-18T15:24:03;32.88;;;18.35;;
41446;SDS011;27185;52.040;4.490;2022-12-18T15:26:49;29.70;;;18.50;;
41446;SDS011;27185;52.040;4.490;2022-12-18T15:29:34;32.65;;;18.25;;
41446;SDS011;27185;52.040;4.490;2022-12-18T15:32:20;31.10;;;17.08;;
41446;SDS011;27185;52.040;4.490;2022-12-18T15:38:03;31.63;;;18.83;;
41446;SDS011;27185;52.040;4.490;2022-12-18T15:40:49;33.67;;;19.38;;
41446;SDS011;27185;52.040;4.490;2022-12-18T15:43:34;35.95;;;20.63;;
41446;SDS011;27185;52.040;4.490;2022-12-18T15:46:23;36.63;;;19.65;;
41446;SDS011;27185;52.040;4.490;2022-12-18T15:49:09;32.65;;;18.15;;
41446;SDS011;27185;52.040;4.490;2022-12-18T15:51:58;34.92;;;19.08;;
41446;SDS011;27185;52.040;4.490;2022-12-18T15:54:44;34.20;;;18.50;;
41446;SDS011;27185;52.040;4.490;2022-12-18T15:57:48;30.48;;;17.27;;
41446;SDS011;27185;52.040;4.490;2022-12-18T16:00:35;32.65;;;20.25;;
41446;SDS011;27185;52.040;4.490;2022-12-18T16:03:21;31.88;;;18.95;;
41446;SDS011;27185;52.040;4.490;2022-12-18T16:06:07;37.33;;;21.85;;
41446;SDS011;27185;52.040;4.490;2022-12-18T16:08:54;38.20;;;19.85;;
41446;SDS011;27185;52.040;4.490;2022-12-18T16:11:41;38.92;;;21.05;;
41446;SDS011;27185;52.040;4.490;2022-12-18T16:17:14;31.50;;;17.85;;
41446;SDS011;27185;52.040;4.490;2022-12-18T16:20:00;32.45;;;18.83;;
41446;SDS011;27185;52.040;4.490;2022-12-18T16:22:46;25.88;;;16.42;;
41446;SDS011;27185;52.040;4.490;2022-12-18T16:25:33;35.63;;;19.52;;
41446;SDS011;27185;52.040;4.490;2022-12-18T16:28:18;34.47;;;18.95;;
41446;SDS011;27185;52.040;4.490;2022-12-18T16:31:04;30.17;;;16.75;;
41446;SDS011;27185;52.040;4.490;2022-12-18T16:33:49;31.52;;;17.17;;
41446;SDS011;27185;52.040;4.490;2022-12-18T16:36:59;32.40;;;17.73;;
41446;SDS011;27185;52.040;4.490;2022-12-18T16:39:46;28.67;;;17.33;;
41446;SDS011;27185;52.040;4.490;2022-12-18T16:42:31;32.13;;;17.40;;
41446;SDS011;27185;52.040;4.490;2022-12-18T16:45:17;30.83;;;16.80;;
41446;SDS011;27185;52.040;4.490;2022-12-18T16:48:03;30.35;;;16.85;;
41446;SDS011;27185;52.040;4.490;2022-12-18T16:50:49;32.00;;;18.88;;
41446;SDS011;27185;52.040;4.490;2022-12-18T16:53:34;27.38;;;16.60;;
41446;SDS011;27185;52.040;4.490;2022-12-18T16:56:20;33.35;;;18.60;;
41446;SDS011;27185;52.040;4.490;2022-12-18T16:59:06;31.23;;;18.08;;
41446;SDS011;27185;52.040;4.490;2022-12-18T17:01:53;32.60;;;18.05;;
41446;SDS011;27185;52.040;4.490;2022-12-18T17:04:41;31.77;;;17.42;;
41446;SDS011;27185;52.040;4.490;2022-12-18T17:07:27;28.25;;;16.02;;
41446;SDS011;27185;52.040;4.490;2022-12-18T17:10:12;33.28;;;18.00;;
41446;SDS011;27185;52.040;4.490;2022-12-18T17:12:58;31.90;;;17.98;;
41446;SDS011;27185;52.040;4.490;2022-12-18T17:15:44;31.85;;;17.73;;
41446;SDS011;27185;52.040;4.490;2022-12-18T17:18:31;32.60;;;18.63;;
41446;SDS011;27185;52.040;4.490;2022-12-18T17:21:17;33.53;;;18.38;;
41446;SDS011;27185;52.040;4.490;2022-12-18T17:24:03;34.03;;;19.65;;
41446;SDS011;27185;52.040;4.490;2022-12-18T17:26:49;35.83;;;20.50;;
41446;SDS011;27185;52.040;4.490;2022-12-18T17:29:34;35.60;;;20.00;;
41446;SDS011;27185;52.040;4.490;2022-12-18T17:32:20;38.05;;;19.73;;
41446;SDS011;27185;52.040;4.490;2022-12-18T17:35:06;35.05;;;19.58;;
41446;SDS011;27185;52.040;4.490;2022-12-18T17:37:52;34.80;;;18.45;;
41446;SDS011;27185;52.040;4.490;2022-12-18T17:40:37;29.40;;;18.55;;
41446;SDS011;27185;52.040;4.490;2022-12-18T17:43:24;30.60;;;17.50;;
41446;SDS011;27185;52.040;4.490;2022-12-18T17:46:11;33.63;;;19.40;;
41446;SDS011;27185;52.040;4.490;2022-12-18T17:48:59;32.67;;;18.02;;
41446;SDS011;27185;52.040;4.490;2022-12-18T17:51:46;32.55;;;18.20;;
41446;SDS011;27185;52.040;4.490;2022-12-18T17:54:32;34.92;;;18.40;;
41446;SDS011;27185;52.040;4.490;2022-12-18T17:57:19;33.72;;;18.05;;
41446;SDS011;27185;52.040;4.490;2022-12-18T18:00:05;33.47;;;16.90;;
41446;SDS011;27185;52.040;4.490;2022-12-18T18:02:51;33.25;;;19.85;;
41446;SDS011;27185;52.040;4.490;2022-12-18T18:05:36;35.58;;;18.90;;
41446;SDS011;27185;52.040;4.490;2022-12-18T18:08:22;37.25;;;20.80;;
41446;SDS011;27185;52.040;4.490;2022-12-18T18:11:10;33.83;;;18.67;;
41446;SDS011;27185;52.040;4.490;2022-12-18T18:14:17;35.05;;;19.20;;
41446;SDS011;27185;52.040;4.490;2022-12-18T18:17:04;37.08;;;20.73;;
41446;SDS011;27185;52.040;4.490;2022-12-18T18:19:49;36.17;;;20.42;;